createdAt,value
2018-05-12T00:01:27.559Z,13.03
2018-05-12T00:03:55.607Z,13.06
2018-05-12T00:06:23.708Z,13.07
2018-05-12T00:08:51.854Z,13.04
2018-05-12T00:11:19.808Z,12.84
2018-05-12T00:13:47.991Z,12.80
2018-05-12T00:16:16.540Z,12.79
2018-05-12T00:18:44.539Z,12.78
2018-05-12T00:21:12.465Z,12.84
2018-05-12T00:23:40.440Z,12.72
2018-05-12T00:26:08.743Z,12.70
2018-05-12T00:28:36.672Z,12.59
2018-05-12T00:31:04.604Z,12.65
2018-05-12T00:33:32.562Z,12.61
2018-05-12T00:36:00.464Z,12.76
2018-05-12T00:38:28.400Z,13.00
2018-05-12T00:40:56.312Z,12.96
2018-05-12T00:43:24.339Z,13.11
2018-05-12T00:45:53.294Z,13.24
2018-05-12T00:48:21.259Z,13.23
2018-05-12T00:50:49.664Z,13.08
2018-05-12T00:53:18.088Z,12.72
2018-05-12T00:55:46.022Z,12.69
2018-05-12T00:58:14.052Z,12.53
2018-05-12T01:00:42.111Z,12.47
2018-05-12T01:03:10.052Z,12.47
2018-05-12T01:05:37.978Z,12.77
2018-05-12T01:08:05.911Z,12.94
2018-05-12T01:10:33.890Z,12.91
2018-05-12T01:13:01.827Z,12.84
2018-05-12T01:15:29.827Z,12.63
2018-05-12T01:17:57.767Z,12.50
2018-05-12T01:20:25.715Z,12.42
2018-05-12T01:22:54.261Z,12.51
2018-05-12T01:25:22.177Z,12.38
2018-05-12T01:27:50.114Z,12.35
2018-05-12T01:30:18.056Z,12.38
2018-05-12T01:32:45.994Z,12.67
2018-05-12T01:35:13.940Z,12.86
2018-05-12T01:37:42.228Z,12.81
2018-05-12T01:40:10.196Z,12.79
2018-05-12T01:42:38.362Z,12.65
2018-05-12T01:45:06.426Z,12.46
2018-05-12T01:47:34.319Z,12.74
2018-05-12T01:50:02.287Z,12.81
2018-05-12T01:52:30.215Z,12.92
2018-05-12T01:54:58.195Z,13.02
2018-05-12T01:57:26.148Z,12.99
2018-05-12T01:59:54.076Z,12.97
2018-05-12T02:02:22.096Z,12.77
2018-05-12T02:04:50.086Z,12.57
2018-05-12T02:07:18.038Z,12.49
2018-05-12T02:09:45.952Z,12.49
2018-05-12T02:12:13.896Z,12.44
2018-05-12T02:14:41.829Z,12.37
2018-05-12T02:17:09.797Z,12.43
2018-05-12T02:19:37.765Z,12.33
2018-05-12T02:22:05.750Z,12.37
2018-05-12T02:24:33.685Z,12.58
2018-05-12T02:27:01.655Z,12.84
2018-05-12T02:29:29.584Z,12.74
2018-05-12T02:31:57.554Z,12.64
2018-05-12T02:34:25.495Z,12.71
2018-05-12T02:36:53.429Z,12.76
2018-05-12T02:39:21.347Z,12.67
2018-05-12T02:41:49.398Z,12.64
2018-05-12T02:44:17.391Z,12.78
2018-05-12T02:46:45.324Z,12.70
2018-05-12T02:49:13.281Z,12.62
2018-05-12T02:51:41.217Z,12.60
2018-05-12T02:54:09.161Z,12.82
2018-05-12T02:56:37.207Z,12.57
2018-05-12T02:59:05.102Z,12.33
2018-05-12T03:01:33.053Z,12.23
2018-05-12T03:04:01.149Z,12.19
2018-05-12T03:06:29.081Z,12.21
2018-05-12T03:08:57.015Z,12.41
2018-05-12T03:11:25.030Z,12.44
2018-05-12T03:13:53.072Z,12.56
2018-05-12T03:16:20.928Z,12.48
2018-05-12T03:18:48.861Z,12.34
2018-05-12T03:21:16.871Z,12.00
2018-05-12T03:23:45.049Z,11.93
2018-05-12T03:26:12.972Z,11.83
2018-05-12T03:28:40.884Z,11.75
2018-05-12T03:31:08.903Z,11.57
2018-05-12T03:33:36.841Z,11.37
2018-05-12T03:36:04.759Z,11.40
2018-05-12T03:38:32.703Z,11.38
2018-05-12T03:41:00.725Z,11.43
2018-05-12T03:43:29.025Z,11.37
2018-05-12T03:45:56.959Z,11.38
2018-05-12T03:48:24.929Z,11.38
2018-05-12T03:50:53.033Z,11.34
2018-05-12T03:53:21.016Z,11.41
2018-05-12T03:55:48.997Z,11.37
2018-05-12T03:58:16.948Z,11.41
2018-05-12T04:00:45.115Z,11.49
2018-05-12T04:03:13.065Z,11.53
2018-05-12T04:05:52.806Z,11.57
2018-05-12T04:08:32.521Z,11.37
2018-05-12T04:14:01.778Z,11.59
2018-05-12T04:16:29.774Z,11.54
2018-05-12T04:18:57.699Z,11.60
2018-05-12T04:21:25.679Z,11.56
2018-05-12T04:23:54.456Z,11.48
2018-05-12T04:26:22.371Z,11.54
2018-05-12T04:28:50.320Z,11.78
2018-05-12T04:31:18.748Z,11.74
2018-05-12T04:33:46.671Z,11.73
2018-05-12T04:36:14.628Z,11.86
2018-05-12T04:38:42.591Z,11.87
2018-05-12T04:41:10.491Z,11.96
2018-05-12T04:43:38.407Z,12.06
2018-05-12T04:46:06.355Z,11.96
2018-05-12T04:48:34.355Z,12.02
2018-05-12T04:51:02.303Z,12.14
2018-05-12T04:53:30.424Z,12.16
2018-05-12T04:55:58.382Z,12.18
2018-05-12T04:58:26.306Z,12.35
2018-05-12T05:00:54.253Z,12.47
2018-05-12T05:03:22.188Z,12.63
2018-05-12T05:05:50.128Z,12.90
2018-05-12T05:08:18.115Z,12.84
2018-05-12T05:10:46.217Z,13.20
2018-05-12T05:13:14.139Z,13.37
2018-05-12T05:15:42.093Z,13.50
2018-05-12T05:18:10.004Z,13.54
2018-05-12T05:20:38.028Z,13.45
2018-05-12T05:23:05.959Z,13.36
2018-05-12T05:25:33.885Z,13.33
2018-05-12T05:28:01.883Z,13.23
2018-05-12T05:30:29.812Z,13.40
2018-05-12T05:32:57.755Z,13.60
2018-05-12T05:35:25.666Z,13.60
2018-05-12T05:37:53.654Z,13.84
2018-05-12T05:40:21.653Z,14.03
2018-05-12T05:42:49.564Z,14.06
2018-05-12T05:45:17.561Z,13.91
2018-05-12T05:47:45.484Z,14.00
2018-05-12T05:50:13.547Z,14.09
2018-05-12T05:52:41.566Z,14.04
2018-05-12T05:55:09.495Z,14.09
2018-05-12T05:57:37.422Z,14.15
2018-05-12T06:00:05.346Z,14.33
2018-05-12T06:02:33.285Z,14.39
2018-05-12T06:05:01.248Z,14.44
2018-05-12T06:07:29.159Z,14.75
2018-05-12T06:09:57.106Z,14.85
2018-05-12T06:12:25.119Z,14.84
2018-05-12T06:14:53.420Z,14.71
2018-05-12T06:17:21.381Z,14.70
2018-05-12T06:19:49.335Z,14.89
2018-05-12T06:22:17.433Z,14.84
2018-05-12T06:24:45.427Z,14.92
2018-05-12T06:27:13.368Z,14.95
2018-05-12T06:29:41.341Z,15.18
2018-05-12T06:32:09.263Z,15.28
2018-05-12T06:34:37.232Z,15.48
2018-05-12T06:37:05.244Z,15.67
2018-05-12T06:39:33.270Z,15.56
2018-05-12T06:42:01.192Z,15.65
2018-05-12T06:44:29.127Z,15.97
2018-05-12T06:46:57.137Z,16.08
2018-05-12T06:49:25.077Z,16.14
2018-05-12T06:51:53.026Z,16.55
2018-05-12T06:54:21.087Z,16.69
2018-05-12T06:56:49.107Z,16.85
2018-05-12T06:59:17.075Z,17.36
2018-05-12T07:01:45.000Z,17.49
2018-05-12T07:04:12.938Z,17.40
2018-05-12T07:06:40.842Z,17.75
2018-05-12T07:09:08.809Z,18.68
2018-05-12T07:11:36.823Z,18.82
2018-05-12T07:14:04.933Z,19.51
2018-05-12T07:16:32.937Z,19.51
2018-05-12T07:19:00.839Z,19.40
2018-05-12T07:21:28.777Z,18.68
2018-05-12T07:23:56.800Z,19.06
2018-05-12T07:26:24.802Z,19.33
2018-05-12T07:28:52.740Z,20.19
2018-05-12T07:31:20.805Z,20.14
2018-05-12T07:33:49.029Z,20.50
2018-05-12T07:36:16.952Z,20.30
2018-05-12T07:38:44.936Z,20.03
2018-05-12T07:41:12.919Z,19.45
2018-05-12T07:43:40.853Z,19.41
2018-05-12T07:46:08.895Z,19.25
2018-05-12T07:48:36.834Z,19.00
2018-05-12T07:51:04.808Z,18.78
2018-05-12T07:53:32.729Z,18.58
2018-05-12T07:56:00.782Z,18.13
2018-05-12T07:58:28.696Z,18.26
2018-05-12T08:00:56.665Z,18.76
2018-05-12T08:03:24.647Z,18.82
2018-05-12T08:05:52.563Z,19.88
2018-05-12T08:08:20.507Z,20.28
2018-05-12T08:10:48.482Z,21.09
2018-05-12T08:13:16.406Z,21.04
2018-05-12T08:15:44.309Z,20.54
2018-05-12T08:18:12.244Z,20.25
2018-05-12T08:20:40.145Z,19.89
2018-05-12T08:23:08.114Z,19.88
2018-05-12T08:25:36.171Z,19.56
2018-05-12T08:28:04.091Z,19.38
2018-05-12T08:30:32.028Z,19.50
2018-05-12T08:32:59.964Z,19.48
2018-05-12T08:35:27.943Z,19.50
2018-05-12T08:37:55.891Z,19.43
2018-05-12T08:40:24.471Z,20.24
2018-05-12T08:42:52.319Z,21.23
2018-05-12T08:45:20.241Z,21.80
2018-05-12T08:47:48.204Z,21.58
2018-05-12T08:50:16.661Z,21.27
2018-05-12T08:52:44.570Z,20.93
2018-05-12T08:55:12.553Z,20.40
2018-05-12T08:57:40.414Z,20.36
2018-05-12T09:00:08.509Z,20.14
2018-05-12T09:02:36.423Z,20.06
2018-05-12T09:05:04.443Z,20.16
2018-05-12T09:07:33.028Z,20.63
2018-05-12T09:10:00.958Z,21.32
2018-05-12T09:12:29.308Z,21.50
2018-05-12T09:14:57.307Z,21.99
2018-05-12T09:17:25.274Z,22.57
2018-05-12T09:19:53.242Z,22.77
2018-05-12T09:22:21.214Z,23.08
2018-05-12T09:24:49.109Z,22.96
2018-05-12T09:27:17.090Z,23.46
2018-05-12T09:29:45.123Z,22.97
2018-05-12T09:32:13.025Z,23.06
2018-05-12T09:34:40.940Z,22.98
2018-05-12T09:37:08.930Z,23.47
2018-05-12T09:39:37.177Z,23.65
2018-05-12T09:42:05.103Z,22.72
2018-05-12T09:44:33.011Z,22.58
2018-05-12T09:47:00.934Z,21.89
2018-05-12T09:49:28.843Z,22.41
2018-05-12T09:51:56.772Z,23.14
2018-05-12T09:54:24.685Z,23.70
2018-05-12T09:56:52.591Z,23.95
2018-05-12T09:59:20.608Z,24.68
2018-05-12T10:01:48.536Z,25.29
2018-05-12T10:04:16.568Z,25.39
2018-05-12T10:06:44.573Z,25.96
2018-05-12T10:09:12.479Z,25.79
2018-05-12T10:11:41.212Z,26.20
2018-05-12T10:14:09.119Z,26.25
2018-05-12T10:16:37.310Z,25.91
2018-05-12T10:19:05.235Z,25.96
2018-05-12T10:21:33.594Z,26.15
2018-05-12T10:24:01.597Z,26.11
2018-05-12T10:26:29.534Z,26.19
2018-05-12T10:28:57.448Z,26.35
2018-05-12T10:31:25.402Z,25.30
2018-05-12T10:33:53.401Z,24.34
2018-05-12T10:36:21.324Z,24.71
2018-05-12T10:38:49.658Z,25.12
2018-05-12T10:41:17.669Z,25.67
2018-05-12T10:43:45.621Z,26.04
2018-05-12T10:46:13.631Z,26.50
2018-05-12T10:48:41.628Z,26.21
2018-05-12T10:51:09.522Z,24.99
2018-05-12T10:53:37.634Z,24.47
2018-05-12T10:56:05.533Z,23.83
2018-05-12T10:58:33.470Z,23.72
2018-05-12T11:01:01.399Z,23.64
2018-05-12T11:03:29.299Z,23.60
2018-05-12T11:05:57.304Z,22.72
2018-05-12T11:08:25.252Z,22.44
2018-05-12T11:10:53.156Z,22.51
2018-05-12T11:13:21.149Z,22.47
2018-05-12T11:15:49.177Z,22.22
2018-05-12T11:18:17.087Z,22.37
2018-05-12T11:20:45.014Z,22.18
2018-05-12T11:23:12.903Z,21.91
2018-05-12T11:25:40.860Z,21.92
2018-05-12T11:28:08.787Z,21.75
2018-05-12T11:30:36.803Z,21.60
2018-05-12T11:33:04.727Z,21.45
2018-05-12T11:35:32.643Z,21.20
2018-05-12T11:38:01.374Z,20.99
2018-05-12T11:40:29.287Z,21.13
2018-05-12T11:42:57.184Z,21.06
2018-05-12T11:45:25.095Z,21.32
2018-05-12T11:47:52.992Z,21.01
2018-05-12T11:50:21.135Z,21.31
2018-05-12T11:52:49.027Z,21.34
2018-05-12T11:55:16.929Z,21.33
2018-05-12T11:57:44.908Z,21.04
2018-05-12T12:00:12.807Z,21.15
2018-05-12T12:02:40.729Z,21.72
2018-05-12T12:05:08.633Z,22.25
2018-05-12T12:07:36.580Z,23.17
2018-05-12T12:10:04.484Z,23.94
2018-05-12T12:12:32.535Z,24.49
2018-05-12T12:15:00.475Z,25.07
2018-05-12T12:17:28.403Z,25.15
2018-05-12T12:19:56.368Z,24.50
2018-05-12T12:22:24.253Z,24.02
2018-05-12T12:24:52.200Z,23.66
2018-05-12T12:27:20.111Z,23.28
2018-05-12T12:29:48.235Z,22.91
2018-05-12T12:32:16.195Z,23.20
2018-05-12T12:34:44.225Z,23.79
2018-05-12T12:37:12.159Z,24.34
2018-05-12T12:39:40.092Z,23.72
2018-05-12T12:42:07.998Z,23.25
2018-05-12T12:44:35.959Z,23.23
2018-05-12T12:47:03.895Z,22.79
2018-05-12T12:49:31.803Z,22.44
2018-05-12T12:51:59.763Z,22.56
2018-05-12T12:54:27.680Z,22.78
2018-05-12T12:56:55.565Z,23.17
2018-05-12T12:59:23.588Z,23.16
2018-05-12T13:01:51.817Z,23.43
2018-05-12T13:04:19.706Z,23.57
2018-05-12T13:06:47.608Z,24.16
2018-05-12T13:09:15.719Z,24.15
2018-05-12T13:11:43.864Z,24.27
2018-05-12T13:14:11.747Z,24.00
2018-05-12T13:16:39.757Z,24.38
2018-05-12T13:19:07.689Z,24.79
2018-05-12T13:21:35.863Z,24.77
2018-05-12T13:24:03.774Z,23.88
2018-05-12T13:26:31.658Z,23.09
2018-05-12T13:28:59.577Z,23.15
2018-05-12T13:31:27.546Z,23.02
2018-05-12T13:33:55.531Z,23.45
2018-05-12T13:36:23.443Z,23.83
2018-05-12T13:38:51.335Z,24.00
2018-05-12T13:41:19.252Z,23.32
2018-05-12T13:43:47.194Z,23.37
2018-05-12T13:46:15.103Z,23.52
2018-05-12T13:48:43.114Z,23.56
2018-05-12T13:51:11.017Z,23.38
2018-05-12T13:53:38.914Z,23.82
2018-05-12T13:56:06.862Z,24.08
2018-05-12T13:58:34.788Z,24.27
2018-05-12T14:01:02.691Z,24.48
2018-05-12T14:03:30.616Z,24.45
2018-05-12T14:05:58.543Z,24.73
2018-05-12T14:08:26.543Z,24.95
2018-05-12T14:10:54.452Z,24.84
2018-05-12T14:13:22.590Z,24.25
2018-05-12T14:15:50.639Z,24.54
2018-05-12T14:18:18.719Z,24.39
2018-05-12T14:20:47.077Z,24.39
2018-05-12T14:23:14.971Z,24.23
2018-05-12T14:25:43.009Z,23.80
2018-05-12T14:28:10.923Z,24.00
2018-05-12T14:30:38.830Z,24.01
2018-05-12T14:33:06.755Z,23.64
2018-05-12T14:35:34.819Z,23.71
2018-05-12T14:38:02.756Z,23.70
2018-05-12T14:40:30.659Z,23.74
2018-05-12T14:42:58.590Z,23.66
2018-05-12T14:45:26.490Z,23.49
2018-05-12T14:47:54.427Z,23.77
2018-05-12T14:50:22.311Z,23.98
2018-05-12T14:52:50.209Z,24.01
2018-05-12T14:55:18.123Z,23.59
2018-05-12T14:57:46.031Z,23.26
2018-05-12T15:00:13.977Z,23.42
2018-05-12T15:02:41.879Z,23.54
2018-05-12T15:05:10.287Z,23.37
2018-05-12T15:07:38.264Z,23.45
2018-05-12T15:10:06.178Z,23.07
2018-05-12T15:12:34.078Z,22.84
2018-05-12T15:15:02.000Z,22.90
2018-05-12T15:17:29.906Z,22.69
2018-05-12T15:19:57.875Z,22.81
2018-05-12T15:22:25.971Z,23.01
2018-05-12T15:24:53.894Z,22.56
2018-05-12T15:27:21.787Z,22.27
2018-05-12T15:29:49.703Z,22.23
2018-05-12T15:32:17.644Z,22.29
2018-05-12T15:34:45.567Z,22.41
2018-05-12T15:37:13.468Z,22.63
2018-05-12T15:39:41.391Z,22.65
2018-05-12T15:42:09.348Z,22.57
2018-05-12T15:44:37.291Z,22.37
2018-05-12T15:47:05.241Z,22.67
2018-05-12T15:49:33.102Z,22.71
2018-05-12T15:52:01.027Z,22.47
2018-05-12T15:54:28.954Z,22.51
2018-05-12T15:56:56.970Z,22.55
2018-05-12T15:59:24.860Z,22.35
2018-05-12T16:01:52.768Z,22.02
2018-05-12T16:04:20.729Z,21.89
2018-05-12T16:06:48.788Z,22.01
2018-05-12T16:09:16.802Z,22.22
2018-05-12T16:11:44.703Z,22.25
2018-05-12T16:14:12.644Z,22.06
2018-05-12T16:16:40.569Z,21.94
2018-05-12T16:19:08.485Z,21.89
2018-05-12T16:21:36.373Z,21.48
2018-05-12T16:24:04.312Z,21.68
2018-05-12T16:26:32.447Z,21.64
2018-05-12T16:29:00.367Z,21.17
2018-05-12T16:31:28.342Z,21.27
2018-05-12T16:33:56.214Z,21.38
2018-05-12T16:36:24.269Z,21.37
2018-05-12T16:38:52.223Z,21.47
2018-05-12T16:41:20.157Z,21.44
2018-05-12T16:43:48.105Z,21.29
2018-05-12T16:46:16.029Z,21.21
2018-05-12T16:48:43.949Z,21.34
2018-05-12T16:51:11.942Z,21.28
2018-05-12T16:53:39.799Z,21.30
2018-05-12T16:56:07.833Z,21.09
2018-05-12T16:58:35.807Z,20.79
2018-05-12T17:01:03.807Z,20.62
2018-05-12T17:03:31.772Z,20.50
2018-05-12T17:05:59.667Z,20.47
2018-05-12T17:08:27.587Z,20.63
2018-05-12T17:10:55.495Z,20.61
2018-05-12T17:13:23.533Z,20.61
2018-05-12T17:15:51.351Z,20.62
2018-05-12T17:18:19.282Z,20.46
2018-05-12T17:20:47.205Z,20.61
2018-05-12T17:23:15.109Z,20.70
2018-05-12T17:25:43.808Z,20.48
2018-05-12T17:28:11.766Z,20.36
2018-05-12T17:30:39.682Z,20.70
2018-05-12T17:33:07.606Z,20.47
2018-05-12T17:35:35.513Z,20.43
2018-05-12T17:38:03.483Z,20.41
2018-05-12T17:40:31.421Z,20.30
2018-05-12T17:42:59.360Z,20.33
2018-05-12T17:45:27.351Z,20.26
2018-05-12T17:47:55.251Z,20.13
2018-05-12T17:50:23.299Z,20.22
2018-05-12T17:52:51.843Z,20.16
2018-05-12T17:55:19.747Z,20.28
2018-05-12T17:57:47.644Z,20.07
2018-05-12T18:00:15.551Z,20.04
2018-05-12T18:02:43.483Z,20.10
2018-05-12T18:05:11.425Z,19.91
2018-05-12T18:07:39.332Z,19.62
2018-05-12T18:10:07.550Z,19.59
2018-05-12T18:12:35.498Z,19.66
2018-05-12T18:15:03.485Z,19.65
2018-05-12T18:17:31.389Z,19.59
2018-05-12T18:19:59.335Z,19.53
2018-05-12T18:22:28.231Z,19.40
2018-05-12T18:24:56.663Z,19.28
2018-05-12T18:27:24.621Z,19.11
2018-05-12T18:29:52.541Z,18.95
2018-05-12T18:32:20.996Z,18.66
2018-05-12T18:34:48.931Z,18.81
2018-05-12T18:37:16.853Z,18.63
2018-05-12T18:39:44.856Z,18.71
2018-05-12T18:42:12.919Z,18.70
2018-05-12T18:44:40.912Z,18.54
2018-05-12T18:47:08.844Z,18.47
2018-05-12T18:49:36.847Z,18.21
2018-05-12T18:52:04.793Z,18.15
2018-05-12T18:54:32.731Z,18.23
2018-05-12T18:57:00.639Z,18.28
2018-05-12T18:59:28.576Z,18.22
2018-05-12T19:01:56.471Z,18.15
2018-05-12T19:04:25.359Z,18.11
2018-05-12T19:06:53.299Z,17.96
2018-05-12T19:09:21.866Z,18.09
2018-05-12T19:11:49.795Z,17.94
2018-05-12T19:14:17.701Z,17.75
2018-05-12T19:16:45.643Z,17.81
2018-05-12T19:19:13.603Z,17.66
2018-05-12T19:21:41.550Z,17.76
2018-05-12T19:24:09.488Z,17.74
2018-05-12T19:26:37.471Z,17.55
2018-05-12T19:29:05.507Z,17.35
2018-05-12T19:31:34.421Z,17.26
2018-05-12T19:34:02.394Z,17.11
2018-05-12T19:36:30.413Z,17.26
2018-05-12T19:38:58.313Z,17.41
2018-05-12T19:41:26.253Z,17.18
2018-05-12T19:43:54.216Z,17.04
2018-05-12T19:46:22.148Z,16.79
2018-05-12T19:48:50.067Z,16.77
2018-05-12T19:51:18.015Z,16.76
2018-05-12T19:53:46.022Z,16.70
2018-05-12T19:56:13.999Z,16.73
2018-05-12T19:58:41.947Z,16.67
2018-05-12T20:01:09.914Z,16.49
2018-05-12T20:03:38.042Z,16.49
2018-05-12T20:06:05.931Z,16.50
2018-05-12T20:08:33.845Z,16.66
2018-05-12T20:11:02.389Z,16.75
2018-05-12T20:13:30.321Z,16.63
2018-05-12T20:15:58.429Z,16.57
2018-05-12T20:18:26.272Z,16.47
2018-05-12T20:20:54.191Z,16.22
2018-05-12T20:23:22.769Z,16.45
2018-05-12T20:25:50.692Z,16.20
2018-05-12T20:28:18.705Z,15.96
2018-05-12T20:30:46.653Z,15.86
2018-05-12T20:33:14.600Z,16.05
2018-05-12T20:35:42.515Z,16.20
2018-05-12T20:38:10.433Z,16.07
2018-05-12T20:40:38.351Z,15.75
2018-05-12T20:43:06.314Z,15.69
2018-05-12T20:45:34.236Z,15.71
2018-05-12T20:48:02.177Z,15.41
2018-05-12T20:50:30.115Z,15.52
2018-05-12T20:52:58.091Z,15.61
2018-05-12T20:55:26.111Z,15.48
2018-05-12T20:57:54.044Z,15.46
2018-05-12T21:00:22.014Z,15.27
2018-05-12T21:02:49.918Z,15.37
2018-05-12T21:05:17.853Z,15.42
2018-05-12T21:07:45.775Z,15.44
2018-05-12T21:10:13.699Z,15.45
2018-05-12T21:12:41.623Z,15.39
2018-05-12T21:15:09.613Z,15.32
2018-05-12T21:17:37.519Z,15.27
2018-05-12T21:20:05.446Z,15.24
2018-05-12T21:22:33.460Z,15.17
2018-05-12T21:25:01.444Z,15.26
2018-05-12T21:27:29.330Z,15.33
2018-05-12T21:29:57.264Z,15.11
2018-05-12T21:32:25.279Z,15.19
2018-05-12T21:34:53.189Z,14.93
2018-05-12T21:37:21.158Z,14.97
2018-05-12T21:39:49.096Z,15.00
2018-05-12T21:42:17.123Z,15.04
2018-05-12T21:44:45.053Z,14.94
2018-05-12T21:47:13.108Z,14.84
2018-05-12T21:49:41.004Z,14.85
2018-05-12T21:52:08.945Z,14.80
2018-05-12T21:54:36.963Z,14.96
2018-05-12T21:57:04.946Z,14.92
2018-05-12T21:59:32.859Z,14.70
2018-05-12T22:02:00.768Z,14.83
2018-05-12T22:04:28.733Z,14.72
2018-05-12T22:06:56.965Z,14.96
2018-05-12T22:09:24.903Z,14.94
2018-05-12T22:11:52.827Z,14.71
2018-05-12T22:14:20.759Z,14.62
2018-05-12T22:16:48.688Z,14.66
2018-05-12T22:19:16.618Z,14.44
2018-05-12T22:21:44.542Z,14.60
2018-05-12T22:24:12.497Z,14.53
2018-05-12T22:26:40.420Z,14.56
2018-05-12T22:29:08.347Z,14.51
2018-05-12T22:31:36.308Z,14.34
2018-05-12T22:34:04.220Z,14.32
2018-05-12T22:36:32.335Z,14.37
2018-05-12T22:39:00.910Z,14.52
2018-05-12T22:41:30.619Z,14.40
2018-05-12T22:43:58.730Z,14.40
2018-05-12T22:46:26.681Z,14.47
2018-05-12T22:48:54.668Z,14.62
2018-05-12T22:51:22.592Z,14.64
2018-05-12T22:53:50.530Z,14.79
2018-05-12T22:56:18.966Z,15.03
2018-05-12T22:58:46.908Z,14.78
2018-05-12T23:01:14.824Z,14.81
2018-05-12T23:03:42.797Z,15.17
2018-05-12T23:06:10.839Z,14.96
2018-05-12T23:08:38.891Z,15.04
2018-05-12T23:11:06.837Z,14.96
2018-05-12T23:13:34.785Z,15.27
2018-05-12T23:16:02.799Z,15.39
2018-05-12T23:18:30.756Z,15.08
2018-05-12T23:20:58.679Z,15.27
2018-05-12T23:23:26.578Z,15.11
2018-05-12T23:25:54.817Z,15.27
2018-05-12T23:28:23.296Z,15.52
2018-05-12T23:30:52.245Z,15.23
2018-05-12T23:33:20.227Z,15.27
2018-05-12T23:35:48.238Z,15.04
2018-05-12T23:38:16.222Z,15.17
2018-05-12T23:40:44.227Z,15.19
2018-05-12T23:43:12.160Z,14.93
2018-05-12T23:45:40.146Z,15.14
2018-05-12T23:48:08.090Z,15.24
2018-05-12T23:50:36.006Z,15.01
2018-05-12T23:53:03.997Z,15.02
2018-05-12T23:55:31.923Z,14.87
2018-05-12T23:57:59.835Z,15.31
